createdAt,value
2023-02-20T00:02:12.817Z,17.77
2023-02-20T00:04:40.441Z,28.35
2023-02-20T00:07:06.804Z,24.23
2023-02-20T00:09:33.088Z,39.15
2023-02-20T00:11:59.423Z,47.08
2023-02-20T00:14:25.732Z,58.85
2023-02-20T00:16:52.081Z,44.20
2023-02-20T00:19:18.957Z,74.20
2023-02-20T00:21:47.354Z,86.18
2023-02-20T00:24:14.986Z,33.65
2023-02-20T00:26:52.852Z,24.08
2023-02-20T00:29:22.019Z,19.27
2023-02-20T00:31:56.127Z,25.70
2023-02-20T00:34:26.455Z,28.48
2023-02-20T00:36:53.188Z,16.50
2023-02-20T00:39:19.888Z,44.22
2023-02-20T00:41:46.641Z,40.65
2023-02-20T00:44:14.697Z,20.05
2023-02-20T00:46:41.137Z,25.90
2023-02-20T00:49:07.523Z,34.85
2023-02-20T00:51:46.008Z,43.03
2023-02-20T00:54:12.772Z,27.98
2023-02-20T00:56:39.072Z,18.30
2023-02-20T00:59:05.383Z,14.75
2023-02-20T01:01:32.332Z,9.02
2023-02-20T01:03:59.544Z,12.57
2023-02-20T01:06:25.887Z,9.60
2023-02-20T01:08:52.372Z,10.32
2023-02-20T01:11:20.560Z,11.48
2023-02-20T01:13:47.003Z,9.90
2023-02-20T01:16:13.688Z,9.48
2023-02-20T01:18:42.177Z,13.27
2023-02-20T01:21:08.526Z,9.77
2023-02-20T01:23:34.861Z,10.35
2023-02-20T01:26:01.195Z,11.02
2023-02-20T01:28:28.009Z,9.27
2023-02-20T01:30:54.324Z,11.15
2023-02-20T01:33:20.721Z,14.60
2023-02-20T01:35:47.041Z,10.85
2023-02-20T01:38:13.395Z,9.27
2023-02-20T01:40:39.711Z,10.00
2023-02-20T01:43:06.043Z,10.35
2023-02-20T01:45:36.598Z,11.32
2023-02-20T01:48:03.721Z,8.82
2023-02-20T01:50:52.116Z,14.65
2023-02-20T01:53:21.876Z,9.95
2023-02-20T01:55:56.324Z,10.73
2023-02-20T01:58:31.532Z,7.93
2023-02-20T02:01:00.179Z,10.68
2023-02-20T02:03:31.269Z,9.85
2023-02-20T02:06:04.906Z,8.80
2023-02-20T02:08:32.858Z,12.98
2023-02-20T02:10:59.124Z,11.88
2023-02-20T02:13:25.538Z,8.70
2023-02-20T02:16:17.896Z,10.18
2023-02-20T02:18:55.057Z,8.50
2023-02-20T02:21:44.650Z,11.57
2023-02-20T02:24:22.610Z,14.57
2023-02-20T02:27:03.138Z,9.75
2023-02-20T02:29:56.361Z,7.97
2023-02-20T02:32:47.237Z,7.95
2023-02-20T02:35:44.374Z,10.73
2023-02-20T02:38:42.394Z,13.50
2023-02-20T02:41:18.019Z,12.27
2023-02-20T02:44:06.494Z,13.45
2023-02-20T02:46:54.659Z,14.02
2023-02-20T02:49:34.250Z,18.73
2023-02-20T02:52:02.672Z,16.67
2023-02-20T02:54:29.287Z,17.77
2023-02-20T02:57:20.445Z,20.00
2023-02-20T02:59:50.626Z,16.48
2023-02-20T03:02:20.208Z,17.35
2023-02-20T03:04:51.886Z,19.65
2023-02-20T03:07:20.361Z,17.90
2023-02-20T03:09:57.112Z,18.45
2023-02-20T03:12:26.289Z,21.35
2023-02-20T03:15:15.065Z,22.67
2023-02-20T03:17:57.905Z,25.83
2023-02-20T03:20:24.421Z,22.70
2023-02-20T03:22:55.691Z,21.60
2023-02-20T03:25:33.769Z,24.05
2023-02-20T03:28:05.588Z,19.98
2023-02-20T03:33:40.489Z,25.27
2023-02-20T03:36:31.239Z,21.60
2023-02-20T03:39:21.267Z,23.38
2023-02-20T03:42:08.052Z,25.25
2023-02-20T03:44:38.632Z,19.35
2023-02-20T03:47:08.225Z,20.00
2023-02-20T03:49:42.157Z,26.83
2023-02-20T03:52:12.108Z,21.52
2023-02-20T03:54:41.153Z,25.35
2023-02-20T03:57:15.327Z,20.88
2023-02-20T03:59:57.761Z,27.15
2023-02-20T04:02:31.039Z,25.52
2023-02-20T04:05:05.235Z,24.83
2023-02-20T04:07:37.340Z,23.42
2023-02-20T04:10:07.804Z,23.55
2023-02-20T04:12:38.587Z,21.35
2023-02-20T04:15:06.868Z,22.08
2023-02-20T04:17:45.554Z,22.63
2023-02-20T04:20:14.491Z,27.58
2023-02-20T04:22:50.892Z,22.60
2023-02-20T04:25:44.326Z,18.83
2023-02-20T04:28:13.747Z,19.10
2023-02-20T04:30:55.373Z,21.23
2023-02-20T04:33:22.277Z,24.30
2023-02-20T04:35:50.778Z,20.65
2023-02-20T04:38:17.679Z,22.67
2023-02-20T04:40:44.073Z,21.38
2023-02-20T04:43:10.884Z,15.70
2023-02-20T04:45:37.252Z,18.90
2023-02-20T04:48:04.423Z,15.80
2023-02-20T04:50:33.435Z,22.58
2023-02-20T04:53:01.646Z,17.63
2023-02-20T04:55:28.843Z,16.80
2023-02-20T04:57:58.917Z,17.67
2023-02-20T05:00:29.379Z,14.52
2023-02-20T05:02:56.280Z,18.48
2023-02-20T05:05:28.047Z,16.05
2023-02-20T05:07:56.809Z,14.88
2023-02-20T05:10:24.370Z,14.88
2023-02-20T05:12:50.759Z,13.30
2023-02-20T05:15:17.122Z,16.42
2023-02-20T05:17:43.421Z,13.60
2023-02-20T05:20:10.874Z,11.98
2023-02-20T05:22:37.170Z,17.00
2023-02-20T05:25:03.843Z,14.85
2023-02-20T05:27:30.233Z,14.35
2023-02-20T05:29:58.841Z,13.40
2023-02-20T05:32:27.614Z,12.23
2023-02-20T05:34:54.508Z,12.13
2023-02-20T05:37:23.150Z,9.98
2023-02-20T05:39:49.770Z,11.07
2023-02-20T05:42:16.942Z,12.38
2023-02-20T05:44:44.182Z,11.27
2023-02-20T05:47:10.517Z,11.32
2023-02-20T05:49:37.149Z,11.98
2023-02-20T05:52:11.260Z,11.88
2023-02-20T05:54:39.014Z,9.93
2023-02-20T05:57:05.812Z,13.32
2023-02-20T05:59:32.161Z,12.38
2023-02-20T06:01:59.996Z,15.02
2023-02-20T06:04:26.629Z,12.27
2023-02-20T06:06:53.013Z,12.73
2023-02-20T06:09:19.512Z,8.20
2023-02-20T06:11:54.897Z,9.52
2023-02-20T06:14:23.538Z,9.27
2023-02-20T06:16:49.996Z,13.60
2023-02-20T06:19:22.245Z,14.13
2023-02-20T06:21:50.126Z,13.18
2023-02-20T06:24:17.547Z,12.57
2023-02-20T06:26:44.882Z,19.48
2023-02-20T06:29:12.776Z,9.68
2023-02-20T06:31:39.240Z,14.52
2023-02-20T06:34:07.675Z,8.90
2023-02-20T06:36:37.198Z,12.60
2023-02-20T06:39:05.638Z,11.18
2023-02-20T06:41:31.967Z,10.73
2023-02-20T06:43:58.305Z,10.93
2023-02-20T06:46:24.927Z,11.68
2023-02-20T06:48:56.652Z,10.77
2023-02-20T06:51:25.845Z,10.57
2023-02-20T06:53:52.267Z,11.00
2023-02-20T06:56:24.751Z,10.07
2023-02-20T06:58:52.810Z,14.70
2023-02-20T07:01:21.147Z,8.52
2023-02-20T07:03:51.268Z,10.85
2023-02-20T07:06:17.644Z,11.18
2023-02-20T07:08:44.021Z,15.55
2023-02-20T07:11:11.126Z,14.65
2023-02-20T07:13:37.471Z,15.40
2023-02-20T07:16:04.015Z,12.75
2023-02-20T07:18:30.352Z,12.00
2023-02-20T07:20:57.037Z,15.10
2023-02-20T07:23:23.952Z,11.73
2023-02-20T07:25:50.705Z,15.43
2023-02-20T07:28:18.802Z,9.75
2023-02-20T07:30:47.171Z,16.60
2023-02-20T07:33:13.547Z,16.25
2023-02-20T07:35:39.869Z,23.42
2023-02-20T07:38:07.154Z,17.73
2023-02-20T07:40:33.681Z,15.63
2023-02-20T07:43:00.387Z,14.68
2023-02-20T07:45:29.061Z,15.35
2023-02-20T07:47:55.482Z,25.42
2023-02-20T07:50:21.811Z,30.85
2023-02-20T07:52:48.207Z,30.42
2023-02-20T07:55:16.578Z,15.80
2023-02-20T07:57:46.725Z,27.95
2023-02-20T08:00:18.295Z,30.67
2023-02-20T08:02:45.199Z,30.85
2023-02-20T08:05:12.124Z,45.50
2023-02-20T08:07:38.596Z,51.25
2023-02-20T08:10:05.635Z,77.47
2023-02-20T08:12:31.984Z,70.85
2023-02-20T08:14:58.280Z,40.40
2023-02-20T08:17:29.663Z,27.30
2023-02-20T08:20:00.732Z,32.13
2023-02-20T08:22:40.014Z,29.98
2023-02-20T08:25:07.848Z,42.13
2023-02-20T08:27:38.119Z,28.00
2023-02-20T08:30:06.833Z,33.40
2023-02-20T08:32:33.413Z,45.13
2023-02-20T08:34:59.919Z,43.78
2023-02-20T08:37:26.211Z,40.17
2023-02-20T08:39:52.561Z,33.35
2023-02-20T08:42:18.952Z,30.20
2023-02-20T08:44:45.287Z,27.17
2023-02-20T08:47:11.631Z,25.95
2023-02-20T08:49:37.939Z,25.60
2023-02-20T08:52:05.744Z,28.77
2023-02-20T08:54:32.266Z,21.35
2023-02-20T08:56:58.654Z,23.60
2023-02-20T08:59:25.123Z,24.25
2023-02-20T09:01:51.512Z,16.65
2023-02-20T09:04:20.459Z,12.55
2023-02-20T09:06:46.806Z,14.98
2023-02-20T09:09:13.102Z,17.52
2023-02-20T09:11:39.516Z,14.02
2023-02-20T09:14:06.003Z,14.38
2023-02-20T09:16:32.680Z,10.98
2023-02-20T09:19:00.174Z,11.00
2023-02-20T09:21:28.523Z,10.40
2023-02-20T09:23:54.857Z,16.25
2023-02-20T09:26:21.217Z,17.98
2023-02-20T09:28:47.607Z,16.95
2023-02-20T09:31:13.922Z,12.23
2023-02-20T09:33:45.616Z,16.73
2023-02-20T09:36:14.323Z,13.00
2023-02-20T09:38:41.872Z,6.97
2023-02-20T09:41:22.844Z,12.63
2023-02-20T09:44:15.582Z,15.52
2023-02-20T09:46:45.946Z,15.48
2023-02-20T09:49:19.231Z,9.33
2023-02-20T09:51:52.719Z,12.85
2023-02-20T09:54:41.026Z,10.88
2023-02-20T09:57:16.562Z,16.20
2023-02-20T09:59:46.818Z,12.05
2023-02-20T10:02:17.983Z,10.90
2023-02-20T10:07:37.670Z,17.15
2023-02-20T10:10:29.449Z,13.18
2023-02-20T10:13:15.785Z,14.20
2023-02-20T10:16:13.073Z,12.55
2023-02-20T10:18:54.796Z,18.10
2023-02-20T10:21:45.032Z,16.33
2023-02-20T10:24:36.069Z,17.92
2023-02-20T10:27:40.134Z,15.27
2023-02-20T10:30:09.038Z,12.82
2023-02-20T10:32:47.228Z,13.90
2023-02-20T10:35:18.311Z,21.83
2023-02-20T10:37:50.004Z,23.15
2023-02-20T10:40:33.662Z,40.55
2023-02-20T10:43:12.100Z,21.88
2023-02-20T10:45:54.398Z,32.33
2023-02-20T10:48:25.844Z,20.92
2023-02-20T10:51:17.136Z,18.70
2023-02-20T10:53:50.750Z,25.25
2023-02-20T10:56:25.994Z,18.27
2023-02-20T10:59:02.679Z,17.70
2023-02-20T11:01:29.326Z,23.70
2023-02-20T11:04:02.424Z,27.70
2023-02-20T11:06:42.536Z,39.00
2023-02-20T11:09:10.519Z,26.67
2023-02-20T11:11:44.100Z,24.17
2023-02-20T11:14:44.281Z,22.05
2023-02-20T11:17:19.215Z,20.38
2023-02-20T11:19:47.055Z,33.97
2023-02-20T11:22:14.704Z,18.63
2023-02-20T11:24:42.535Z,10.68
2023-02-20T11:27:20.563Z,17.95
2023-02-20T11:29:51.148Z,18.92
2023-02-20T11:32:20.316Z,22.33
2023-02-20T11:34:46.682Z,12.82
2023-02-20T11:37:14.441Z,18.27
2023-02-20T11:39:47.509Z,17.38
2023-02-20T11:42:20.213Z,17.42
2023-02-20T11:45:11.606Z,31.10
2023-02-20T11:47:38.419Z,17.08
2023-02-20T11:50:20.615Z,27.63
2023-02-20T11:52:59.928Z,23.98
2023-02-20T11:55:27.789Z,32.47
2023-02-20T11:57:54.383Z,18.58
2023-02-20T12:00:26.873Z,16.67
2023-02-20T12:03:11.349Z,17.52
2023-02-20T12:05:45.174Z,10.05
2023-02-20T12:08:33.806Z,8.13
2023-02-20T12:11:09.440Z,8.38
2023-02-20T12:13:41.528Z,11.82
2023-02-20T12:16:53.200Z,12.90
2023-02-20T12:19:38.096Z,10.75
2023-02-20T12:22:18.306Z,16.38
2023-02-20T12:25:02.956Z,14.30
2023-02-20T12:27:51.243Z,9.48
2023-02-20T12:30:43.964Z,8.75
2023-02-20T12:33:33.792Z,10.32
2023-02-20T12:36:10.905Z,9.50
2023-02-20T12:39:12.575Z,9.32
2023-02-20T12:41:57.328Z,9.82
2023-02-20T12:44:44.978Z,9.70
2023-02-20T12:47:25.739Z,11.40
2023-02-20T12:49:55.101Z,15.68
2023-02-20T12:53:03.784Z,10.52
2023-02-20T12:55:59.369Z,11.05
2023-02-20T12:58:45.258Z,13.80
2023-02-20T13:01:14.631Z,12.05
2023-02-20T13:03:57.284Z,8.15
2023-02-20T13:06:47.096Z,11.38
2023-02-20T13:09:13.342Z,10.07
2023-02-20T13:11:47.343Z,9.75
2023-02-20T13:14:13.608Z,12.60
2023-02-20T13:16:43.954Z,12.52
2023-02-20T13:19:47.943Z,8.13
2023-02-20T13:22:14.931Z,7.70
2023-02-20T13:24:41.556Z,8.45
2023-02-20T13:27:10.101Z,14.13
2023-02-20T13:29:56.783Z,8.23
2023-02-20T13:32:32.756Z,9.50
2023-02-20T13:35:36.742Z,12.27
2023-02-20T13:38:18.012Z,13.40
2023-02-20T13:40:56.236Z,10.60
2023-02-20T13:43:22.490Z,8.75
2023-02-20T13:46:01.185Z,9.68
2023-02-20T13:48:30.314Z,12.52
2023-02-20T13:51:15.064Z,17.15
2023-02-20T13:53:56.721Z,9.63
2023-02-20T13:56:46.084Z,10.77
2023-02-20T13:59:17.806Z,9.68
2023-02-20T14:02:17.246Z,9.13
2023-02-20T14:04:54.899Z,14.20
2023-02-20T14:07:28.571Z,9.50
2023-02-20T14:10:03.666Z,8.85
2023-02-20T14:12:30.344Z,10.07
2023-02-20T14:14:57.494Z,8.43
2023-02-20T14:17:24.308Z,7.88
2023-02-20T14:20:08.399Z,8.13
2023-02-20T14:22:39.836Z,9.68
2023-02-20T14:25:12.086Z,10.32
2023-02-20T14:27:40.293Z,10.07
2023-02-20T14:30:23.533Z,8.80
2023-02-20T14:32:52.587Z,10.13
2023-02-20T14:35:46.803Z,7.18
2023-02-20T14:38:23.472Z,8.07
2023-02-20T14:40:50.907Z,10.85
2023-02-20T14:43:24.183Z,6.75
2023-02-20T14:46:05.856Z,10.07
2023-02-20T14:48:38.472Z,10.10
2023-02-20T14:51:10.864Z,6.43
2023-02-20T14:53:37.756Z,8.90
2023-02-20T14:56:12.609Z,8.57
2023-02-20T14:58:39.191Z,8.57
2023-02-20T15:01:40.012Z,8.23
2023-02-20T15:04:12.865Z,12.80
2023-02-20T15:06:41.578Z,7.78
2023-02-20T15:09:21.413Z,10.38
2023-02-20T15:11:52.532Z,10.77
2023-02-20T15:14:25.343Z,12.70
2023-02-20T15:17:22.233Z,11.57
2023-02-20T15:19:49.901Z,12.80
2023-02-20T15:22:22.273Z,9.38
2023-02-20T15:24:48.587Z,11.18
2023-02-20T15:27:18.215Z,10.07
2023-02-20T15:29:46.717Z,9.95
2023-02-20T15:32:21.568Z,10.13
2023-02-20T15:34:56.550Z,10.77
2023-02-20T15:37:37.995Z,8.98
2023-02-20T15:40:19.943Z,11.35
2023-02-20T15:42:46.600Z,10.98
2023-02-20T15:45:13.714Z,15.25
2023-02-20T15:47:40.066Z,10.52
2023-02-20T15:50:06.488Z,8.35
2023-02-20T15:52:32.880Z,11.07
2023-02-20T15:55:01.633Z,8.48
2023-02-20T15:57:27.935Z,10.00
2023-02-20T15:59:55.695Z,10.35
2023-02-20T16:02:24.322Z,12.35
2023-02-20T16:04:52.071Z,9.45
2023-02-20T16:07:20.152Z,10.32
2023-02-20T16:09:46.930Z,11.75
2023-02-20T16:12:21.011Z,8.70
2023-02-20T16:14:49.378Z,7.35
2023-02-20T16:17:22.370Z,9.63
2023-02-20T16:19:48.674Z,9.15
2023-02-20T16:22:15.074Z,8.20
2023-02-20T16:24:43.059Z,8.70
2023-02-20T16:27:23.700Z,10.15
2023-02-20T16:29:52.160Z,8.43
2023-02-20T16:32:25.693Z,14.00
2023-02-20T16:34:54.374Z,13.65
2023-02-20T16:37:21.761Z,10.98
2023-02-20T16:39:48.726Z,8.98
2023-02-20T16:42:33.558Z,12.55
2023-02-20T16:45:03.751Z,15.32
2023-02-20T16:47:31.068Z,7.53
2023-02-20T16:50:01.324Z,7.40
2023-02-20T16:52:31.859Z,8.80
2023-02-20T16:54:59.603Z,11.93
2023-02-20T16:57:26.224Z,10.63
2023-02-20T16:59:58.180Z,13.15
2023-02-20T17:02:31.246Z,10.35
2023-02-20T17:04:58.639Z,9.75
2023-02-20T17:07:25.763Z,8.43
2023-02-20T17:09:52.853Z,10.75
2023-02-20T17:12:22.290Z,11.40
2023-02-20T17:14:48.660Z,6.60
2023-02-20T17:17:16.136Z,10.15
2023-02-20T17:19:43.945Z,8.43
2023-02-20T17:22:12.257Z,11.40
2023-02-20T17:24:43.107Z,10.85
2023-02-20T17:27:11.444Z,8.75
2023-02-20T17:29:38.449Z,12.07
2023-02-20T17:32:05.118Z,12.57
2023-02-20T17:34:31.476Z,9.73
2023-02-20T17:36:57.851Z,11.88
2023-02-20T17:39:24.554Z,11.35
2023-02-20T17:41:53.055Z,13.52
2023-02-20T17:44:22.713Z,25.58
2023-02-20T17:46:50.862Z,37.00
2023-02-20T17:49:17.635Z,82.28
2023-02-20T17:51:44.559Z,50.63
2023-02-20T17:54:12.235Z,66.50
2023-02-20T17:56:43.027Z,55.92
2023-02-20T17:59:11.071Z,54.65
2023-02-20T18:01:38.169Z,53.10
2023-02-20T18:04:08.897Z,54.70
2023-02-20T18:06:36.689Z,58.17
2023-02-20T18:09:03.706Z,68.75
2023-02-20T18:11:30.138Z,60.90
2023-02-20T18:13:57.623Z,45.17
2023-02-20T18:16:26.246Z,28.83
2023-02-20T18:18:53.069Z,17.55
2023-02-20T18:21:21.902Z,25.67
2023-02-20T18:23:48.322Z,24.33
2023-02-20T18:26:15.633Z,19.80
2023-02-20T18:28:42.243Z,17.50
2023-02-20T18:31:08.614Z,20.48
2023-02-20T18:33:35.011Z,37.60
2023-02-20T18:36:08.372Z,37.10
2023-02-20T18:38:35.516Z,35.08
2023-02-20T18:41:02.015Z,26.48
2023-02-20T18:43:28.324Z,23.88
2023-02-20T18:45:54.853Z,23.27
2023-02-20T18:48:21.197Z,22.52
2023-02-20T18:50:47.524Z,26.55
2023-02-20T18:53:13.923Z,24.23
2023-02-20T18:55:40.349Z,26.27
2023-02-20T18:58:06.695Z,47.55
2023-02-20T19:00:35.956Z,37.53
2023-02-20T19:03:03.459Z,38.47
2023-02-20T19:05:30.197Z,37.75
2023-02-20T19:07:56.538Z,30.52
2023-02-20T19:10:26.044Z,28.88
2023-02-20T19:12:53.415Z,33.88
2023-02-20T19:15:22.180Z,25.60
2023-02-20T19:17:48.866Z,25.33
2023-02-20T19:20:20.020Z,22.30
2023-02-20T19:22:46.790Z,22.92
2023-02-20T19:25:14.516Z,15.98
2023-02-20T19:27:40.920Z,18.83
2023-02-20T19:30:08.154Z,18.42
2023-02-20T19:32:34.564Z,23.02
2023-02-20T19:35:00.947Z,21.38
2023-02-20T19:37:27.343Z,22.35
2023-02-20T19:39:53.641Z,26.58
2023-02-20T19:42:20.015Z,22.52
2023-02-20T19:44:46.347Z,24.13
2023-02-20T19:47:14.880Z,26.33
2023-02-20T19:49:45.903Z,24.70
2023-02-20T19:52:12.294Z,29.80
2023-02-20T19:54:40.495Z,29.52
2023-02-20T19:57:09.688Z,30.17
2023-02-20T19:59:36.208Z,33.72
2023-02-20T20:02:04.489Z,26.70
2023-02-20T20:04:32.776Z,23.98
2023-02-20T20:07:02.403Z,25.88
2023-02-20T20:09:36.240Z,23.02
2023-02-20T20:12:26.061Z,35.88
2023-02-20T20:14:52.662Z,30.63
2023-02-20T20:17:19.084Z,32.08
2023-02-20T20:19:57.967Z,31.75
2023-02-20T20:22:25.006Z,35.72
2023-02-20T20:24:51.801Z,29.90
2023-02-20T20:27:20.597Z,29.85
2023-02-20T20:29:50.712Z,39.47
2023-02-20T20:32:19.701Z,35.78
2023-02-20T20:34:53.166Z,37.08
2023-02-20T20:37:20.768Z,36.67
2023-02-20T20:39:47.174Z,34.72
2023-02-20T20:42:14.916Z,32.40
2023-02-20T20:44:41.807Z,36.20
2023-02-20T20:47:08.221Z,29.45
2023-02-20T20:49:34.549Z,35.70
2023-02-20T20:52:00.891Z,33.47
2023-02-20T20:54:27.208Z,36.53
2023-02-20T20:56:53.508Z,33.30
2023-02-20T20:59:19.844Z,40.22
2023-02-20T21:01:46.291Z,74.97
2023-02-20T21:04:12.812Z,110.40
2023-02-20T21:06:39.443Z,182.80
2023-02-20T21:09:05.854Z,98.57
2023-02-20T21:11:34.342Z,60.42
2023-02-20T21:14:01.748Z,51.15
2023-02-20T21:16:28.069Z,49.45
2023-02-20T21:18:54.467Z,44.78
2023-02-20T21:21:28.762Z,35.17
2023-02-20T21:23:55.448Z,30.10
2023-02-20T21:26:22.182Z,45.95
2023-02-20T21:28:49.312Z,45.83
2023-02-20T21:31:16.678Z,38.35
2023-02-20T21:33:43.098Z,68.30
2023-02-20T21:36:09.483Z,47.58
2023-02-20T21:38:35.934Z,43.25
2023-02-20T21:41:04.234Z,37.13
2023-02-20T21:43:49.199Z,40.15
2023-02-20T21:46:17.587Z,46.03
2023-02-20T21:48:43.904Z,42.00
2023-02-20T21:51:10.245Z,47.50
2023-02-20T21:53:36.590Z,92.78
2023-02-20T21:56:02.982Z,38.53
2023-02-20T21:58:48.144Z,40.22
2023-02-20T22:01:14.668Z,39.63
2023-02-20T22:03:41.151Z,39.83
2023-02-20T22:06:07.416Z,50.85
2023-02-20T22:08:52.362Z,50.83
2023-02-20T22:11:37.479Z,44.58
2023-02-20T22:14:22.561Z,38.42
2023-02-20T22:17:07.392Z,39.30
2023-02-20T22:19:52.232Z,40.80
2023-02-20T22:22:36.986Z,38.88
2023-02-20T22:25:22.487Z,40.80
2023-02-20T22:28:07.216Z,37.42
2023-02-20T22:30:54.396Z,41.92
2023-02-20T22:33:39.354Z,45.75
2023-02-20T22:36:24.678Z,38.30
2023-02-20T22:39:10.876Z,38.33
2023-02-20T22:41:55.563Z,36.85
2023-02-20T22:44:40.343Z,41.85
2023-02-20T22:47:25.518Z,43.97
2023-02-20T22:50:10.316Z,38.60
2023-02-20T22:52:55.129Z,41.97
2023-02-20T22:55:39.974Z,39.42
2023-02-20T22:58:25.433Z,41.85
2023-02-20T23:01:10.087Z,50.10
2023-02-20T23:03:57.818Z,42.63
2023-02-20T23:06:42.502Z,42.97
2023-02-20T23:09:28.250Z,43.55
2023-02-20T23:12:14.627Z,40.78
2023-02-20T23:15:00.381Z,41.45
2023-02-20T23:17:45.171Z,43.33
2023-02-20T23:20:36.032Z,44.45
2023-02-20T23:23:21.782Z,39.33
2023-02-20T23:26:07.654Z,36.10
2023-02-20T23:28:52.838Z,40.28
2023-02-20T23:31:38.138Z,40.35
2023-02-20T23:34:23.281Z,39.95
2023-02-20T23:37:11.033Z,36.17
2023-02-20T23:39:56.347Z,40.20
2023-02-20T23:42:41.217Z,42.30
2023-02-20T23:45:27.447Z,41.22
2023-02-20T23:48:12.374Z,36.70
2023-02-20T23:50:57.098Z,32.38
2023-02-20T23:53:42.020Z,38.17
2023-02-20T23:56:26.790Z,34.95
2023-02-20T23:59:11.555Z,34.75
